Disclaimer

Please do not use the information listed here in-flight or in-navigation, as they are not provided to us by the airports but are provided by volunteers, so they might be outdated.

Search


Regions


Airport information page

Radio informations:
Tower (TWR) - 118.3 MHz
Ground (GND) - 121.8 MHz
Brisbane Center - 125.7 MHz
Clearance delivery - 130.35 MHz
Automatic Terminal Information Service (ATIS) - 316.1 MHz
WILLY APP - 135.7 MHz

Airport informations:
Latitude: 32° 47' 42.00" S
Longitude: 151° 50' 04.00" E
Elevation: 31 feet - 9 meters
Operating hours: Remarks
Operating agency: Military
Timezone: UTC+10(+11DT)
Fuel: Jet A1+, Jet A1 with icing inhibitor.

100/130 MIL Spec, low lead, aviation gasoline (BLUE)

Runway information:
12/30 - 7999 x 148 feet< - >2438 x 45 meters

Recent METARs:
YWLM 181600Z AUTO 25003KT 9999 // SCT021 21/20 Q1012
YWLM 181600Z AUTO 25003KT 9999 // SCT021 21/20 Q1012
YWLM 181700Z AUTO 25003KT 9999 // NCD 21/20 Q1012

Airport on the map: